Latest Weather Observations for Tewantin

IDQ60901

Issued at 8:21 am EST Friday 19 December 2014 (issued every 10 minutes, with the page automatically refreshed every 10 minutes)

About weather observations | Map of Brisbane area stations | Latest observations for Brisbane area | Other Formats
Station Details ID: 040908 Name: TEWANTIN RSL PARK Lat: -26.39 Lon: 153.04 Height: 6.4 m
Data from the previous 72 hours. | See also: Recent months at Tewantin
Date/Time
EST
Tmp

°C
App
Tmp
°C
Dew
Point
°C
Rel
Hum
%
Delta-T

°C
Wind Press
QNH
hPa
Press
MSL
hPa
Rain
since
9 am
mm
Dir
 
Spd
km/h
Gust
km/h
Spd
kts
Gust
kts
19/08:00am 21.1 24.0 20.6 97 0.3 NW 6 7 3 4 1012.3 1012.3 22.8
19/07:30am 21.1 24.5 20.9 99 0.1 W 4 7 2 4 1012.6 1012.6 22.8
19/07:00am 21.1 24.1 20.9 99 0.1 NW 6 9 3 5 1012.5 1012.5 22.6
19/06:30am 21.1 24.9 20.9 99 0.1 NW 2 7 1 4 1012.5 1012.5 22.4
19/06:00am 21.0 24.7 20.8 99 0.1 WNW 2 6 1 3 1012.5 1012.5 22.0
19/05:30am 20.9 25.0 20.7 99 0.1 CALM 0 0 0 0 1012.1 1012.1 21.4
19/05:00am 20.8 24.8 20.6 99 0.1 CALM 0 0 0 0 1011.8 1011.8 21.4
19/04:30am 20.7 24.7 20.5 99 0.1 CALM 0 0 0 0 1011.6 1011.6 21.2
19/04:00am 20.8 24.8 20.6 99 0.1 CALM 0 0 0 0 1011.8 1011.8 20.6
19/03:30am 20.8 24.4 20.6 99 0.1 SW 2 7 1 4 1011.8 1011.8 20.0
19/03:00am 20.8 24.0 20.6 99 0.1 SSW 4 7 2 4 1012.0 1012.0 19.4
19/02:30am 20.9 23.2 20.6 98 0.2 SSW 9 13 5 7 1011.8 1011.8 17.4
19/02:00am 21.2 23.9 20.7 97 0.3 SSW 7 15 4 8 1011.6 1011.6 16.0
19/01:30am 21.9 23.8 21.4 97 0.3 SSW 13 19 7 10 1011.8 1011.8 13.6
19/01:00am 22.6 26.4 22.4 99 0.1 SW 6 13 3 7 1012.5 1012.5 12.0
19/12:30am 22.7 26.6 22.5 99 0.1 WSW 6 11 3 6 1012.8 1012.8 11.2
19/12:00am 22.9 26.8 22.9 100 0.0 WNW 7 13 4 7 1013.0 1013.0 8.2
 
Date/Time
EST
Tmp

°C
App
Tmp
°C
Dew
Point
°C
Rel
Hum
%
Delta-T

°C
Wind Press
QNH
hPa
Press
MSL
hPa
Rain
since
9 am
mm
Dir
 
Spd
km/h
Gust
km/h
Spd
kts
Gust
kts
18/11:30pm 22.9 27.0 22.9 100 0.0 NNW 6 9 3 5 1012.5 1012.5 7.0
18/11:00pm 23.1 27.3 23.1 100 0.0 NW 6 13 3 7 1012.5 1012.5 6.2
18/10:30pm 23.1 26.6 22.9 99 0.1 WNW 9 13 5 7 1013.0 1013.0 4.6
18/10:00pm 23.4 28.0 23.1 98 0.2 W 4 7 2 4 1012.3 1012.3 4.4
18/09:30pm 23.2 27.5 22.7 97 0.3 NNE 4 7 2 4 1012.1 1012.1 4.4
18/09:00pm 23.2 26.7 22.9 98 0.2 ENE 9 17 5 9 1012.0 1012.0 4.4
18/08:30pm 23.4 27.2 22.4 94 0.7 S 6 11 3 6 1011.3 1011.3 4.4
18/08:00pm 23.1 26.1 21.2 89 1.2 S 7 11 4 6 1011.6 1011.6 4.2
18/07:30pm 27.9 30.4 19.9 61 5.2 WNW 6 13 3 7 1011.0 1011.0 0.0
18/07:00pm 27.7 28.7 20.3 64 4.9 NNW 15 22 8 12 1009.1 1009.1 0.0
18/06:30pm 28.0 28.9 20.8 65 4.8 NNW 17 24 9 13 1008.2 1008.2 0.0
18/06:00pm 28.3 29.6 21.6 67 4.5 N 17 30 9 16 1007.9 1007.9 0.0
18/05:30pm 28.6 29.3 21.6 66 4.7 N 20 32 11 17 1007.5 1007.5 0.0
18/05:00pm 29.3 29.3 21.0 61 5.5 N 22 35 12 19 1007.2 1007.2 0.0
18/04:30pm 29.8 30.0 20.6 57 6.1 N 20 28 11 15 1006.7 1006.7 0.0
18/04:00pm 30.4 28.9 18.5 49 7.7 N 24 35 13 19 1006.5 1006.5 0.0
18/03:30pm 30.6 30.8 20.2 53 6.9 NNE 19 35 10 19 1006.2 1006.2 0.0
18/03:00pm 31.0 31.2 20.6 54 6.9 NNE 20 37 11 20 1006.1 1006.1 0.0
18/02:30pm 32.2 33.0 23.2 59 6.2 N 24 39 13 21 1006.7 1006.7 0.0
18/02:00pm 31.3 32.0 22.9 61 5.8 NE 24 32 13 17 1006.8 1006.8 0.0
18/01:30pm 32.5 34.6 23.7 59 6.1 NNE 19 30 10 16 1007.5 1007.5 0.0
18/01:00pm 31.0 33.0 23.6 64 5.1 NE 19 28 10 15 1008.0 1008.0 0.0
18/12:30pm 30.7 33.9 24.4 69 4.4 NE 15 20 8 11 1008.5 1008.5 0.0
18/12:00pm 30.0 32.6 23.9 70 4.2 NE 17 22 9 12 1009.2 1009.2 0.0
18/11:30am 30.1 33.3 24.9 73 3.6 NE 17 24 9 13 1009.5 1009.5 0.0
18/11:00am 29.1 31.7 23.3 71 4.0 NE 15 20 8 11 1010.1 1010.1 0.0
18/10:30am 29.4 32.3 23.8 72 3.9 NE 15 22 8 12 1010.3 1010.3 0.0
18/10:00am 29.6 32.6 24.0 72 3.9 NE 15 22 8 12 1011.0 1011.0 0.0
18/09:30am 29.4 31.8 22.9 68 4.4 N 15 24 8 13 1011.0 1011.0 0.0
18/09:00am 29.0 31.1 22.5 68 4.4 N 15 22 8 12 1011.1 1011.1 0.4
18/08:30am 28.2 30.9 22.9 73 3.6 NNW 13 22 7 12 1011.6 1011.6 0.4
18/08:00am 27.9 31.0 22.8 74 3.5 NNW 11 17 6 9 1011.7 1011.7 0.4
18/07:30am 27.0 29.8 21.5 72 3.7 NNW 9 20 5 11 1011.4 1011.4 0.4
18/07:00am 26.4 30.0 19.8 67 4.3 CALM 0 7 0 4 1011.3 1011.3 0.4
18/06:30am 25.8 27.9 19.0 66 4.4 SSW 6 7 3 4 1011.3 1011.3 0.4
18/06:00am 24.1 25.6 17.6 67 4.1 SSW 6 7 3 4 1011.1 1011.1 0.4
18/05:30am 22.9 24.9 17.8 73 3.2 SSE 4 7 2 4 1010.7 1010.7 0.4
18/05:00am 22.6 24.9 17.7 74 3.0 WSW 2 7 1 4 1010.1 1010.1 0.4
18/04:30am 23.0 25.9 18.1 74 3.1 CALM 0 6 0 3 1009.7 1009.7 0.4
18/04:00am 23.3 24.8 18.0 72 3.3 NNW 7 9 4 5 1009.2 1009.2 0.4
18/03:30am 23.8 26.0 17.5 68 3.9 WSW 2 7 1 4 1009.3 1009.3 0.4
18/03:00am 24.3 26.2 16.8 63 4.6 WSW 2 9 1 5 1008.8 1008.8 0.4
18/02:30am 24.7 25.9 16.9 62 4.8 SW 6 9 3 5 1008.7 1008.7 0.4
18/02:00am 24.5 26.0 16.7 61 4.8 NW 4 11 2 6 1007.6 1007.6 0.4
18/01:30am 24.3 24.8 16.6 62 4.7 NW 9 17 5 9 1007.4 1007.4 0.4
18/01:00am 24.1 23.9 16.6 63 4.6 WNW 13 24 7 13 1007.8 1007.8 0.4
18/12:30am 24.2 24.7 16.5 62 4.7 WNW 9 20 5 11 1007.9 1007.9 0.4
18/12:00am 24.1 24.5 16.4 62 4.7 W 9 15 5 8 1008.2 1008.2 0.4
 
Date/Time
EST
Tmp

°C
App
Tmp
°C
Dew
Point
°C
Rel
Hum
%
Delta-T

°C
Wind Press
QNH
hPa
Press
MSL
hPa
Rain
since
9 am
mm
Dir
 
Spd
km/h
Gust
km/h
Spd
kts
Gust
kts
17/11:30pm 24.5 24.8 16.0 59 5.2 WNW 9 15 5 8 1008.1 1008.1 0.4
17/11:00pm 24.4 24.7 16.1 60 5.1 WNW 9 17 5 9 1008.1 1008.1 0.4
17/10:30pm 24.3 24.5 15.8 59 5.1 WNW 9 13 5 7 1008.1 1008.1 0.4
17/10:00pm 24.1 25.2 16.6 63 4.6 NW 6 9 3 5 1008.0 1008.0 0.4
17/09:30pm 23.1 24.0 17.6 71 3.4 NW 9 13 5 7 1007.9 1007.9 0.4
17/09:00pm 23.2 23.7 17.4 70 3.6 WNW 11 20 6 11 1007.7 1007.7 0.4
17/08:30pm 24.3 24.8 16.6 62 4.7 NNW 9 17 5 9 1007.4 1007.4 0.4
17/08:00pm 25.0 24.2 16.2 58 5.4 NW 15 26 8 14 1006.9 1006.9 0.4
17/07:30pm 24.8 24.5 15.4 56 5.7 NW 11 19 6 10 1006.9 1006.9 0.4
17/07:00pm 27.0 26.2 15.1 48 7.2 W 13 19 7 10 1005.8 1005.8 0.4
17/06:50pm 26.6 25.6 15.6 50 6.7 SW 15 26 8 14 1005.4 1005.4 0.4
17/06:32pm 28.4 25.1 16.0 47 7.7 NNW 28 50 15 27 1003.4 1003.4 0.4
17/06:30pm 27.7 25.4 16.6 50 6.9 NNW 24 46 13 25 1003.5 1003.5 0.4
17/06:29pm 27.8 25.3 16.1 49 7.2 NW 24 46 13 25 1003.7 1003.7 0.4
17/06:00pm 27.8 30.6 22.3 72 3.7 W 11 24 6 13 1005.9 1005.9 0.2
17/05:55pm 28.3 33.4 24.7 81 2.5 W 6 13 3 7 1005.9 1005.9 0.2
17/05:30pm 27.7 33.7 24.9 85 2.0 ESE 2 11 1 6 1003.9 1003.9 0.2
17/05:00pm 28.0 33.4 25.2 85 2.0 N 6 11 3 6 1003.8 1003.8 0.2
17/04:30pm 27.6 33.1 25.6 89 1.4 SSW 7 13 4 7 1004.1 1004.1 0.2
17/04:00pm 27.0 31.2 24.1 84 2.0 NE 9 19 5 10 1003.9 1003.9 0.0
17/03:30pm 28.5 30.9 23.6 75 3.4 NE 17 24 9 13 1003.4 1003.4 0.0
17/03:00pm 30.0 32.1 23.7 69 4.4 NNE 19 28 10 15 1003.4 1003.4 0.0
17/02:30pm 31.2 34.3 24.1 66 4.9 NE 15 24 8 13 1004.1 1004.1 0.0
17/02:00pm 30.7 32.4 23.1 64 5.2 NNE 19 26 10 14 1004.4 1004.4 0.0
17/01:30pm 30.6 32.5 23.8 67 4.7 NNE 20 28 11 15 1004.7 1004.7 0.0
17/01:00pm 30.5 32.6 23.7 67 4.7 NNE 19 30 10 16 1005.1 1005.1 0.0
17/12:30pm 30.8 32.9 22.4 61 5.7 NE 15 26 8 14 1005.5 1005.5 0.0
17/12:00pm 33.1 35.8 22.8 54 7.1 N 13 20 7 11 1005.6 1005.6 0.0
17/11:30am 32.4 34.1 21.0 51 7.7 N 13 20 7 11 1006.0 1006.0 0.0
17/11:00am 32.0 33.7 20.9 52 7.4 NNE 13 20 7 11 1006.4 1006.4 0.0
17/10:30am 31.7 35.2 22.1 56 6.5 NW 7 15 4 8 1006.8 1006.8 0.0
17/10:00am 30.6 32.3 21.7 59 6.0 NNW 15 20 8 11 1007.1 1007.1 0.0
17/09:30am 29.9 32.3 22.3 63 5.2 NNW 13 20 7 11 1007.1 1007.1 0.0
17/09:00am 28.5 31.7 23.0 72 3.8 NNW 11 19 6 10 1007.2 1007.2 0.0
17/08:30am 28.4 31.8 23.3 74 3.5 NW 11 20 6 11 1007.5 1007.5 0.0
17/08:00am 27.4 31.3 23.0 77 3.0 NW 7 11 4 6 1007.4 1007.4 0.0
17/07:30am 26.7 30.8 23.2 81 2.4 NW 7 13 4 7 1007.4 1007.4 0.0
17/07:00am 25.3 28.8 22.8 86 1.7 WNW 9 15 5 8 1007.3 1007.3 0.0
17/06:30am 24.6 28.5 23.0 91 1.1 NW 7 13 4 7 1007.1 1007.1 0.0
17/06:00am 23.9 27.8 22.9 94 0.7 NW 7 11 4 6 1006.9 1006.9 0.0
17/05:30am 23.6 27.3 22.6 94 0.7 WNW 7 13 4 7 1006.7 1006.7 0.0
17/05:00am 23.5 27.5 22.7 95 0.5 WNW 6 11 3 6 1006.0 1006.0 0.0
17/04:30am 23.5 26.5 22.7 95 0.5 NW 11 19 6 10 1005.5 1005.5 0.0
17/04:00am 23.5 26.1 22.7 95 0.5 NW 13 20 7 11 1005.4 1005.4 0.0
17/03:30am 23.5 27.3 22.8 96 0.5 NNW 7 9 4 5 1004.9 1004.9 0.0
17/03:00am 23.4 27.1 22.6 95 0.5 NNW 7 13 4 7 1005.3 1005.3 0.0
17/02:30am 23.5 27.2 22.5 94 0.7 NNW 7 13 4 7 1005.8 1005.8 0.0
17/02:00am 23.4 27.1 22.2 93 0.8 NNW 6 9 3 5 1006.4 1006.4 0.0
17/01:30am 23.5 27.4 21.9 91 1.1 WNW 4 9 2 5 1006.6 1006.6 0.0
17/01:00am 23.7 28.5 22.1 91 1.1 CALM 0 6 0 3 1006.9 1006.9 0.0
17/12:30am 23.8 26.9 22.1 90 1.1 NNW 9 13 5 7 1007.2 1007.2 0.0
17/12:00am 23.8 26.5 22.1 90 1.1 N 11 15 6 8 1007.5 1007.5 0.0
 
Date/Time
EST
Tmp

°C
App
Tmp
°C
Dew
Point
°C
Rel
Hum
%
Delta-T

°C
Wind Press
QNH
hPa
Press
MSL
hPa
Rain
since
9 am
mm
Dir
 
Spd
km/h
Gust
km/h
Spd
kts
Gust
kts
16/11:30pm 23.8 27.3 21.9 89 1.3 W 6 9 3 5 1008.8 1008.8 0.0
16/11:00pm 23.8 26.9 22.1 90 1.1 NNW 9 13 5 7 1007.6 1007.6 0.0
16/10:30pm 23.9 26.8 21.8 88 1.4 NNW 9 15 5 8 1007.5 1007.5 0.0
16/10:00pm 24.3 26.8 21.8 86 1.7 NNW 11 19 6 10 1007.3 1007.3 0.0
16/09:30pm 24.5 26.7 21.8 85 1.8 NNW 13 24 7 13 1007.3 1007.3 0.0
16/09:00pm 24.5 27.0 21.8 85 1.8 N 11 17 6 9 1007.2 1007.2 0.0
16/08:30pm 24.3 27.0 21.4 84 1.9 N 9 13 5 7 1007.1 1007.1 0.0
16/08:00pm 24.6 27.3 21.3 82 2.2 N 9 15 5 8 1007.1 1007.1 0.0
16/07:30pm 24.6 26.5 21.3 82 2.2 NNE 13 20 7 11 1006.9 1006.9 0.0
16/07:00pm 24.7 26.2 21.2 81 2.3 NNE 15 22 8 12 1006.8 1006.8 0.0
16/06:30pm 24.8 25.3 20.9 79 2.6 NNE 19 28 10 15 1006.3 1006.3 0.0
16/06:00pm 25.0 25.6 21.1 79 2.6 NNE 19 35 10 19 1006.1 1006.1 0.0
16/05:30pm 25.0 24.1 20.7 77 2.8 NNE 26 39 14 21 1005.6 1005.6 0.0
16/05:00pm 25.1 23.9 20.1 74 3.3 NNE 26 35 14 19 1005.5 1005.5 0.0
16/04:30pm 25.4 25.6 20.2 73 3.4 NNE 19 32 10 17 1005.6 1005.6 0.0
16/04:00pm 25.3 24.9 19.4 70 3.8 NNE 20 33 11 18 1005.7 1005.7 0.0
16/03:30pm 25.8 25.8 20.1 71 3.7 NNE 20 30 11 16 1005.9 1005.9 0.0
16/03:00pm 25.6 25.0 19.7 70 3.8 NNE 22 33 12 18 1006.2 1006.2 0.0
16/02:30pm 25.9 26.1 20.5 72 3.5 NNE 20 30 11 16 1006.9 1006.9 0.0
16/02:00pm 25.6 25.1 19.0 67 4.2 NE 20 30 11 16 1007.5 1007.5 0.0
16/01:30pm 26.1 26.0 20.0 69 4.0 NNE 20 26 11 14 1007.8 1007.8 0.0
16/01:00pm 25.6 25.2 18.0 63 4.8 NE 17 26 9 14 1008.1 1008.1 0.0
16/12:30pm 26.2 26.3 19.1 65 4.6 NNE 17 24 9 13 1008.5 1008.5 0.0
16/12:00pm 26.6 27.3 19.7 66 4.5 NNE 15 22 8 12 1008.8 1008.8 0.0
16/11:30am 26.9 28.2 19.3 63 4.9 NNE 11 17 6 9 1009.3 1009.3 0.0
16/11:00am 26.2 27.2 17.8 60 5.3 N 9 19 5 10 1009.8 1009.8 0.0
16/10:30am 25.5 26.3 17.2 60 5.2 NNE 9 13 5 7 1010.1 1010.1 0.0
16/10:00am 25.3 26.0 17.0 60 5.1 N 9 17 5 9 1010.7 1010.7 0.0
16/09:30am 25.6 26.9 17.5 61 5.1 NE 7 13 4 7 1010.9 1010.9 0.0
16/09:00am 24.9 26.2 17.1 62 4.8 NNE 6 9 3 5 1011.2 1011.2 0.0
16/08:30am 24.7 25.7 16.4 60 5.1 SE 6 7 3 4 1011.1 1011.1 0.0

Latest Capital City Observations: Canberra | Sydney | Melbourne | Brisbane | Adelaide | Perth | Hobart | Darwin

Other Formats:

Comma delimited format used in spreadsheet applications
http://www.bom.gov.au/fwo/IDQ60901/IDQ60901.94570.axf

JavaScript Object Notation format (JSON) in row-major order
http://www.bom.gov.au/fwo/IDQ60901/IDQ60901.94570.json